sensor_id;sensor_type;location;lat;lon;timestamp;P1;durP1;ratioP1;P2;durP2;ratioP2
27201;SDS011;14717;46.924;15.474;2022-08-24T00:01:51;3.42;;;2.00;;
27201;SDS011;14717;46.924;15.474;2022-08-24T00:04:16;2.75;;;2.00;;
27201;SDS011;14717;46.924;15.474;2022-08-24T00:06:42;4.15;;;2.22;;
27201;SDS011;14717;46.924;15.474;2022-08-24T00:09:07;3.80;;;1.98;;
27201;SDS011;14717;46.924;15.474;2022-08-24T00:11:32;5.50;;;2.20;;
27201;SDS011;14717;46.924;15.474;2022-08-24T00:13:58;3.38;;;2.30;;
27201;SDS011;14717;46.924;15.474;2022-08-24T00:16:24;4.10;;;2.33;;
27201;SDS011;14717;46.924;15.474;2022-08-24T00:18:50;4.10;;;2.28;;
27201;SDS011;14717;46.924;15.474;2022-08-24T00:21:16;4.15;;;2.08;;
27201;SDS011;14717;46.924;15.474;2022-08-24T00:23:42;4.68;;;2.30;;
27201;SDS011;14717;46.924;15.474;2022-08-24T00:26:09;5.03;;;2.50;;
27201;SDS011;14717;46.924;15.474;2022-08-24T00:28:34;7.60;;;2.58;;
27201;SDS011;14717;46.924;15.474;2022-08-24T00:31:01;5.13;;;2.80;;
27201;SDS011;14717;46.924;15.474;2022-08-24T00:33:27;3.80;;;2.03;;
27201;SDS011;14717;46.924;15.474;2022-08-24T00:35:52;3.80;;;2.45;;
27201;SDS011;14717;46.924;15.474;2022-08-24T00:38:18;4.65;;;2.40;;
27201;SDS011;14717;46.924;15.474;2022-08-24T00:40:44;3.60;;;2.30;;
27201;SDS011;14717;46.924;15.474;2022-08-24T00:43:12;4.88;;;2.55;;
27201;SDS011;14717;46.924;15.474;2022-08-24T00:45:44;3.72;;;2.22;;
27201;SDS011;14717;46.924;15.474;2022-08-24T00:48:23;5.07;;;2.05;;
27201;SDS011;14717;46.924;15.474;2022-08-24T00:50:54;3.88;;;2.10;;
27201;SDS011;14717;46.924;15.474;2022-08-24T00:53:36;3.53;;;2.10;;
27201;SDS011;14717;46.924;15.474;2022-08-24T00:56:14;5.50;;;2.20;;
27201;SDS011;14717;46.924;15.474;2022-08-24T00:58:44;3.10;;;1.98;;
27201;SDS011;14717;46.924;15.474;2022-08-24T01:01:14;5.82;;;2.30;;
27201;SDS011;14717;46.924;15.474;2022-08-24T01:03:40;4.40;;;2.10;;
27201;SDS011;14717;46.924;15.474;2022-08-24T01:06:07;6.40;;;2.30;;
27201;SDS011;14717;46.924;15.474;2022-08-24T01:08:34;4.97;;;1.98;;
27201;SDS011;14717;46.924;15.474;2022-08-24T01:11:02;4.25;;;2.50;;
27201;SDS011;14717;46.924;15.474;2022-08-24T01:13:36;3.97;;;2.00;;
27201;SDS011;14717;46.924;15.474;2022-08-24T01:16:03;7.00;;;2.35;;
27201;SDS011;14717;46.924;15.474;2022-08-24T01:18:31;3.05;;;1.70;;
27201;SDS011;14717;46.924;15.474;2022-08-24T01:21:32;3.50;;;2.28;;
27201;SDS011;14717;46.924;15.474;2022-08-24T01:24:03;4.00;;;1.90;;
27201;SDS011;14717;46.924;15.474;2022-08-24T01:26:36;4.63;;;2.00;;
27201;SDS011;14717;46.924;15.474;2022-08-24T01:29:14;4.35;;;1.90;;
27201;SDS011;14717;46.924;15.474;2022-08-24T01:31:42;9.23;;;2.42;;
27201;SDS011;14717;46.924;15.474;2022-08-24T01:34:08;3.70;;;1.90;;
27201;SDS011;14717;46.924;15.474;2022-08-24T01:36:36;5.85;;;2.60;;
27201;SDS011;14717;46.924;15.474;2022-08-24T01:39:21;4.22;;;2.03;;
27201;SDS011;14717;46.924;15.474;2022-08-24T01:41:50;5.18;;;2.08;;
27201;SDS011;14717;46.924;15.474;2022-08-24T01:44:16;3.97;;;2.25;;
27201;SDS011;14717;46.924;15.474;2022-08-24T01:46:44;3.15;;;2.10;;
27201;SDS011;14717;46.924;15.474;2022-08-24T01:49:12;3.67;;;2.08;;
27201;SDS011;14717;46.924;15.474;2022-08-24T01:51:38;4.05;;;1.92;;
27201;SDS011;14717;46.924;15.474;2022-08-24T01:54:04;4.88;;;2.13;;
27201;SDS011;14717;46.924;15.474;2022-08-24T01:56:30;4.05;;;2.25;;
27201;SDS011;14717;46.924;15.474;2022-08-24T01:58:56;5.25;;;2.00;;
27201;SDS011;14717;46.924;15.474;2022-08-24T02:01:23;5.68;;;2.20;;
27201;SDS011;14717;46.924;15.474;2022-08-24T02:03:50;3.38;;;2.33;;
27201;SDS011;14717;46.924;15.474;2022-08-24T02:06:16;3.40;;;1.98;;
27201;SDS011;14717;46.924;15.474;2022-08-24T02:08:42;4.28;;;1.90;;
27201;SDS011;14717;46.924;15.474;2022-08-24T02:11:08;3.60;;;2.40;;
27201;SDS011;14717;46.924;15.474;2022-08-24T02:13:35;4.85;;;2.00;;
27201;SDS011;14717;46.924;15.474;2022-08-24T02:16:02;5.50;;;2.30;;
27201;SDS011;14717;46.924;15.474;2022-08-24T02:18:28;4.25;;;1.92;;
27201;SDS011;14717;46.924;15.474;2022-08-24T02:20:56;3.70;;;2.00;;
27201;SDS011;14717;46.924;15.474;2022-08-24T02:23:22;3.97;;;1.85;;
27201;SDS011;14717;46.924;15.474;2022-08-24T02:25:47;3.20;;;2.10;;
27201;SDS011;14717;46.924;15.474;2022-08-24T02:28:13;3.90;;;2.10;;
27201;SDS011;14717;46.924;15.474;2022-08-24T02:33:04;3.05;;;2.10;;
27201;SDS011;14717;46.924;15.474;2022-08-24T02:35:30;6.28;;;2.65;;
27201;SDS011;14717;46.924;15.474;2022-08-24T02:37:55;8.20;;;3.00;;
27201;SDS011;14717;46.924;15.474;2022-08-24T02:42:46;4.47;;;2.33;;
27201;SDS011;14717;46.924;15.474;2022-08-24T02:47:37;4.40;;;2.20;;
27201;SDS011;14717;46.924;15.474;2022-08-24T02:50:04;5.93;;;1.90;;
27201;SDS011;14717;46.924;15.474;2022-08-24T02:52:30;3.47;;;2.30;;
27201;SDS011;14717;46.924;15.474;2022-08-24T02:54:56;4.90;;;2.00;;
27201;SDS011;14717;46.924;15.474;2022-08-24T02:59:47;5.32;;;2.13;;
27201;SDS011;14717;46.924;15.474;2022-08-24T03:02:12;8.35;;;2.60;;
27201;SDS011;14717;46.924;15.474;2022-08-24T03:07:03;2.90;;;2.33;;
27201;SDS011;14717;46.924;15.474;2022-08-24T03:09:29;6.38;;;2.30;;
27201;SDS011;14717;46.924;15.474;2022-08-24T03:11:54;6.22;;;2.15;;
27201;SDS011;14717;46.924;15.474;2022-08-24T03:16:45;4.32;;;2.08;;
27201;SDS011;14717;46.924;15.474;2022-08-24T03:21:37;5.15;;;2.08;;
27201;SDS011;14717;46.924;15.474;2022-08-24T03:24:03;4.70;;;1.85;;
27201;SDS011;14717;46.924;15.474;2022-08-24T03:28:54;4.97;;;1.87;;
27201;SDS011;14717;46.924;15.474;2022-08-24T03:33:45;3.92;;;2.00;;
27201;SDS011;14717;46.924;15.474;2022-08-24T03:36:11;7.57;;;2.20;;
27201;SDS011;14717;46.924;15.474;2022-08-24T03:41:01;5.85;;;2.25;;
27201;SDS011;14717;46.924;15.474;2022-08-24T03:43:27;4.57;;;2.20;;
27201;SDS011;14717;46.924;15.474;2022-08-24T03:46:11;3.33;;;2.08;;
27201;SDS011;14717;46.924;15.474;2022-08-24T03:48:39;6.82;;;2.38;;
27201;SDS011;14717;46.924;15.474;2022-08-24T03:51:06;9.75;;;2.20;;
27201;SDS011;14717;46.924;15.474;2022-08-24T03:53:36;5.45;;;2.55;;
27201;SDS011;14717;46.924;15.474;2022-08-24T03:56:01;4.38;;;2.10;;
27201;SDS011;14717;46.924;15.474;2022-08-24T03:58:27;5.45;;;2.10;;
27201;SDS011;14717;46.924;15.474;2022-08-24T04:00:52;3.95;;;1.90;;
27201;SDS011;14717;46.924;15.474;2022-08-24T04:03:18;8.45;;;2.15;;
27201;SDS011;14717;46.924;15.474;2022-08-24T04:05:44;5.75;;;2.20;;
27201;SDS011;14717;46.924;15.474;2022-08-24T04:08:12;6.40;;;2.08;;
27201;SDS011;14717;46.924;15.474;2022-08-24T04:10:42;8.07;;;2.55;;
27201;SDS011;14717;46.924;15.474;2022-08-24T04:13:08;4.22;;;2.08;;
27201;SDS011;14717;46.924;15.474;2022-08-24T04:15:37;5.22;;;2.13;;
27201;SDS011;14717;46.924;15.474;2022-08-24T04:18:04;8.77;;;2.25;;
27201;SDS011;14717;46.924;15.474;2022-08-24T04:20:30;7.35;;;2.17;;
27201;SDS011;14717;46.924;15.474;2022-08-24T04:25:20;7.95;;;2.25;;
27201;SDS011;14717;46.924;15.474;2022-08-24T04:30:11;5.27;;;1.90;;
27201;SDS011;14717;46.924;15.474;2022-08-24T04:32:38;6.88;;;2.20;;
27201;SDS011;14717;46.924;15.474;2022-08-24T04:35:03;5.75;;;2.45;;
27201;SDS011;14717;46.924;15.474;2022-08-24T04:39:54;8.73;;;2.40;;
27201;SDS011;14717;46.924;15.474;2022-08-24T04:44:45;8.18;;;2.20;;
27201;SDS011;14717;46.924;15.474;2022-08-24T04:47:11;4.35;;;2.20;;
27201;SDS011;14717;46.924;15.474;2022-08-24T04:52:02;9.73;;;2.10;;
27201;SDS011;14717;46.924;15.474;2022-08-24T04:54:29;6.53;;;2.25;;
27201;SDS011;14717;46.924;15.474;2022-08-24T04:56:56;4.45;;;2.03;;
27201;SDS011;14717;46.924;15.474;2022-08-24T05:01:47;8.23;;;2.08;;
27201;SDS011;14717;46.924;15.474;2022-08-24T05:06:39;3.53;;;2.13;;
27201;SDS011;14717;46.924;15.474;2022-08-24T05:09:05;4.93;;;2.15;;
27201;SDS011;14717;46.924;15.474;2022-08-24T05:13:56;7.57;;;2.92;;
27201;SDS011;14717;46.924;15.474;2022-08-24T05:16:22;5.50;;;2.13;;
27201;SDS011;14717;46.924;15.474;2022-08-24T05:18:49;5.45;;;2.20;;
27201;SDS011;14717;46.924;15.474;2022-08-24T05:23:41;6.13;;;2.50;;
27201;SDS011;14717;46.924;15.474;2022-08-24T05:26:09;5.55;;;2.35;;
27201;SDS011;14717;46.924;15.474;2022-08-24T05:28:37;5.20;;;2.00;;
27201;SDS011;14717;46.924;15.474;2022-08-24T05:33:39;4.07;;;2.08;;
27201;SDS011;14717;46.924;15.474;2022-08-24T05:38:38;3.03;;;2.38;;
27201;SDS011;14717;46.924;15.474;2022-08-24T05:41:03;8.23;;;2.30;;
27201;SDS011;14717;46.924;15.474;2022-08-24T05:43:29;4.07;;;2.15;;
27201;SDS011;14717;46.924;15.474;2022-08-24T05:45:55;6.07;;;2.20;;
27201;SDS011;14717;46.924;15.474;2022-08-24T05:48:21;5.60;;;2.35;;
27201;SDS011;14717;46.924;15.474;2022-08-24T05:50:50;3.92;;;2.30;;
27201;SDS011;14717;46.924;15.474;2022-08-24T05:53:17;5.88;;;2.53;;
27201;SDS011;14717;46.924;15.474;2022-08-24T05:55:42;8.70;;;2.58;;
27201;SDS011;14717;46.924;15.474;2022-08-24T05:58:08;6.72;;;2.40;;
27201;SDS011;14717;46.924;15.474;2022-08-24T06:00:33;5.45;;;2.28;;
27201;SDS011;14717;46.924;15.474;2022-08-24T06:03:03;3.70;;;2.22;;
27201;SDS011;14717;46.924;15.474;2022-08-24T06:05:28;10.27;;;2.22;;
27201;SDS011;14717;46.924;15.474;2022-08-24T06:07:54;11.13;;;2.90;;
27201;SDS011;14717;46.924;15.474;2022-08-24T06:10:20;6.68;;;2.35;;
27201;SDS011;14717;46.924;15.474;2022-08-24T06:12:45;5.18;;;2.25;;
27201;SDS011;14717;46.924;15.474;2022-08-24T06:15:11;6.45;;;2.58;;
27201;SDS011;14717;46.924;15.474;2022-08-24T06:17:37;4.63;;;2.58;;
27201;SDS011;14717;46.924;15.474;2022-08-24T06:20:02;5.13;;;2.50;;
27201;SDS011;14717;46.924;15.474;2022-08-24T06:22:28;8.15;;;2.40;;
27201;SDS011;14717;46.924;15.474;2022-08-24T06:24:54;4.85;;;2.53;;
27201;SDS011;14717;46.924;15.474;2022-08-24T06:27:38;4.68;;;2.33;;
27201;SDS011;14717;46.924;15.474;2022-08-24T06:30:06;6.35;;;3.25;;
27201;SDS011;14717;46.924;15.474;2022-08-24T06:32:34;6.07;;;2.50;;
27201;SDS011;14717;46.924;15.474;2022-08-24T06:35:00;4.40;;;2.35;;
27201;SDS011;14717;46.924;15.474;2022-08-24T06:37:25;4.53;;;2.13;;
27201;SDS011;14717;46.924;15.474;2022-08-24T06:39:55;3.70;;;2.70;;
27201;SDS011;14717;46.924;15.474;2022-08-24T06:42:22;5.20;;;2.47;;
27201;SDS011;14717;46.924;15.474;2022-08-24T06:44:51;6.03;;;2.50;;
27201;SDS011;14717;46.924;15.474;2022-08-24T06:47:17;6.53;;;2.50;;
27201;SDS011;14717;46.924;15.474;2022-08-24T06:49:43;4.30;;;2.20;;
27201;SDS011;14717;46.924;15.474;2022-08-24T06:52:08;4.45;;;2.22;;
27201;SDS011;14717;46.924;15.474;2022-08-24T06:54:36;4.43;;;2.10;;
27201;SDS011;14717;46.924;15.474;2022-08-24T06:57:01;3.60;;;2.15;;
27201;SDS011;14717;46.924;15.474;2022-08-24T06:59:27;3.70;;;2.22;;
27201;SDS011;14717;46.924;15.474;2022-08-24T07:01:57;4.90;;;2.20;;
27201;SDS011;14717;46.924;15.474;2022-08-24T07:04:23;6.55;;;2.40;;
27201;SDS011;14717;46.924;15.474;2022-08-24T07:06:51;5.07;;;2.38;;
27201;SDS011;14717;46.924;15.474;2022-08-24T07:09:17;4.50;;;2.08;;
27201;SDS011;14717;46.924;15.474;2022-08-24T07:11:43;4.82;;;2.13;;
27201;SDS011;14717;46.924;15.474;2022-08-24T07:14:09;6.50;;;2.67;;
27201;SDS011;14717;46.924;15.474;2022-08-24T07:16:35;5.00;;;2.40;;
27201;SDS011;14717;46.924;15.474;2022-08-24T07:19:00;7.38;;;2.70;;
27201;SDS011;14717;46.924;15.474;2022-08-24T07:21:27;6.72;;;2.70;;
27201;SDS011;14717;46.924;15.474;2022-08-24T07:23:53;6.35;;;2.78;;
27201;SDS011;14717;46.924;15.474;2022-08-24T07:26:21;5.88;;;2.13;;
27201;SDS011;14717;46.924;15.474;2022-08-24T07:28:48;6.47;;;2.80;;
27201;SDS011;14717;46.924;15.474;2022-08-24T07:31:15;5.30;;;2.33;;
27201;SDS011;14717;46.924;15.474;2022-08-24T07:33:41;4.05;;;2.00;;
27201;SDS011;14717;46.924;15.474;2022-08-24T07:36:06;4.25;;;2.35;;
27201;SDS011;14717;46.924;15.474;2022-08-24T07:38:32;7.68;;;2.40;;
27201;SDS011;14717;46.924;15.474;2022-08-24T07:40:58;7.53;;;2.08;;
27201;SDS011;14717;46.924;15.474;2022-08-24T07:43:25;7.25;;;2.30;;
27201;SDS011;14717;46.924;15.474;2022-08-24T07:45:50;5.13;;;2.50;;
27201;SDS011;14717;46.924;15.474;2022-08-24T07:48:16;3.80;;;2.25;;
27201;SDS011;14717;46.924;15.474;2022-08-24T07:50:42;6.55;;;2.63;;
27201;SDS011;14717;46.924;15.474;2022-08-24T07:53:08;7.03;;;2.53;;
27201;SDS011;14717;46.924;15.474;2022-08-24T07:55:34;4.47;;;2.00;;
27201;SDS011;14717;46.924;15.474;2022-08-24T07:58:00;3.25;;;2.05;;
27201;SDS011;14717;46.924;15.474;2022-08-24T08:00:26;5.07;;;2.28;;
27201;SDS011;14717;46.924;15.474;2022-08-24T08:02:51;4.68;;;1.85;;
27201;SDS011;14717;46.924;15.474;2022-08-24T08:05:18;5.60;;;1.75;;
27201;SDS011;14717;46.924;15.474;2022-08-24T08:07:46;7.35;;;2.55;;
27201;SDS011;14717;46.924;15.474;2022-08-24T08:10:12;2.88;;;1.70;;
27201;SDS011;14717;46.924;15.474;2022-08-24T08:12:38;3.58;;;1.67;;
27201;SDS011;14717;46.924;15.474;2022-08-24T08:15:03;5.55;;;1.98;;
27201;SDS011;14717;46.924;15.474;2022-08-24T08:17:30;3.47;;;1.90;;
27201;SDS011;14717;46.924;15.474;2022-08-24T08:19:56;6.22;;;1.80;;
27201;SDS011;14717;46.924;15.474;2022-08-24T08:22:21;5.80;;;2.10;;
27201;SDS011;14717;46.924;15.474;2022-08-24T08:25:06;3.70;;;1.80;;
27201;SDS011;14717;46.924;15.474;2022-08-24T08:27:32;4.15;;;1.95;;
27201;SDS011;14717;46.924;15.474;2022-08-24T08:29:59;3.08;;;1.73;;
27201;SDS011;14717;46.924;15.474;2022-08-24T08:32:25;3.10;;;1.90;;
27201;SDS011;14717;46.924;15.474;2022-08-24T08:34:51;5.55;;;1.70;;
27201;SDS011;14717;46.924;15.474;2022-08-24T08:37:17;7.22;;;1.98;;
27201;SDS011;14717;46.924;15.474;2022-08-24T08:39:42;4.07;;;1.80;;
27201;SDS011;14717;46.924;15.474;2022-08-24T08:50:17;4.32;;;1.73;;
27201;SDS011;14717;46.924;15.474;2022-08-24T09:06:04;3.65;;;1.52;;
27201;SDS011;14717;46.924;15.474;2022-08-24T09:09:00;5.80;;;1.40;;
27201;SDS011;14717;46.924;15.474;2022-08-24T09:22:15;6.38;;;1.20;;
27201;SDS011;14717;46.924;15.474;2022-08-24T09:30:11;1.77;;;1.17;;
27201;SDS011;14717;46.924;15.474;2022-08-24T09:35:30;3.00;;;1.48;;
27201;SDS011;14717;46.924;15.474;2022-08-24T09:38:00;3.25;;;1.35;;
27201;SDS011;14717;46.924;15.474;2022-08-24T09:49:16;2.22;;;1.23;;
27201;SDS011;14717;46.924;15.474;2022-08-24T10:01:01;3.42;;;1.50;;
27201;SDS011;14717;46.924;15.474;2022-08-24T10:04:03;1.98;;;1.40;;
27201;SDS011;14717;46.924;15.474;2022-08-24T10:10:06;2.53;;;1.50;;
27201;SDS011;14717;46.924;15.474;2022-08-24T10:15:10;2.35;;;1.30;;
27201;SDS011;14717;46.924;15.474;2022-08-24T10:20:33;2.33;;;1.38;;
27201;SDS011;14717;46.924;15.474;2022-08-24T10:31:58;4.03;;;1.60;;
27201;SDS011;14717;46.924;15.474;2022-08-24T10:40:55;3.38;;;1.58;;
27201;SDS011;14717;46.924;15.474;2022-08-24T10:54:24;3.00;;;1.40;;
27201;SDS011;14717;46.924;15.474;2022-08-24T10:59:54;2.45;;;1.45;;
27201;SDS011;14717;46.924;15.474;2022-08-24T11:02:43;2.78;;;1.52;;
27201;SDS011;14717;46.924;15.474;2022-08-24T11:05:15;2.30;;;1.40;;
27201;SDS011;14717;46.924;15.474;2022-08-24T11:07:56;2.92;;;1.70;;
27201;SDS011;14717;46.924;15.474;2022-08-24T11:10:44;2.35;;;1.40;;
27201;SDS011;14717;46.924;15.474;2022-08-24T11:15:46;2.85;;;1.75;;
27201;SDS011;14717;46.924;15.474;2022-08-24T11:18:15;3.70;;;1.70;;
27201;SDS011;14717;46.924;15.474;2022-08-24T11:20:43;2.30;;;1.60;;
27201;SDS011;14717;46.924;15.474;2022-08-24T11:25:52;3.10;;;1.67;;
27201;SDS011;14717;46.924;15.474;2022-08-24T11:28:28;1.98;;;1.40;;
27201;SDS011;14717;46.924;15.474;2022-08-24T11:30:58;3.33;;;1.70;;
27201;SDS011;14717;46.924;15.474;2022-08-24T11:35:52;3.20;;;2.00;;
27201;SDS011;14717;46.924;15.474;2022-08-24T11:38:24;3.13;;;1.70;;
27201;SDS011;14717;46.924;15.474;2022-08-24T11:43:49;2.60;;;1.63;;
27201;SDS011;14717;46.924;15.474;2022-08-24T11:52:08;2.53;;;1.73;;
27201;SDS011;14717;46.924;15.474;2022-08-24T11:54:42;2.67;;;1.60;;
27201;SDS011;14717;46.924;15.474;2022-08-24T12:02:38;2.65;;;1.77;;
27201;SDS011;14717;46.924;15.474;2022-08-24T12:05:32;3.75;;;2.10;;
27201;SDS011;14717;46.924;15.474;2022-08-24T12:16:08;3.05;;;2.08;;
27201;SDS011;14717;46.924;15.474;2022-08-24T12:19:00;3.13;;;1.80;;
27201;SDS011;14717;46.924;15.474;2022-08-24T12:21:35;3.55;;;2.15;;
27201;SDS011;14717;46.924;15.474;2022-08-24T12:24:07;3.80;;;2.05;;
27201;SDS011;14717;46.924;15.474;2022-08-24T12:26:50;4.13;;;2.00;;
27201;SDS011;14717;46.924;15.474;2022-08-24T12:32:09;3.45;;;2.00;;
27201;SDS011;14717;46.924;15.474;2022-08-24T12:37:42;3.38;;;1.90;;
27201;SDS011;14717;46.924;15.474;2022-08-24T12:40:23;3.28;;;2.10;;
27201;SDS011;14717;46.924;15.474;2022-08-24T12:43:00;4.70;;;2.00;;
27201;SDS011;14717;46.924;15.474;2022-08-24T12:45:30;5.72;;;2.10;;
27201;SDS011;14717;46.924;15.474;2022-08-24T12:53:20;3.92;;;2.15;;
27201;SDS011;14717;46.924;15.474;2022-08-24T13:01:44;3.10;;;2.20;;
27201;SDS011;14717;46.924;15.474;2022-08-24T13:17:48;7.53;;;2.08;;
27201;SDS011;14717;46.924;15.474;2022-08-24T13:20:55;2.95;;;1.90;;
27201;SDS011;14717;46.924;15.474;2022-08-24T13:28:31;3.92;;;2.03;;
27201;SDS011;14717;46.924;15.474;2022-08-24T13:33:49;4.07;;;2.05;;
27201;SDS011;14717;46.924;15.474;2022-08-24T13:41:46;4.75;;;2.42;;
27201;SDS011;14717;46.924;15.474;2022-08-24T13:44:40;4.07;;;2.40;;
27201;SDS011;14717;46.924;15.474;2022-08-24T13:47:27;3.47;;;2.28;;
27201;SDS011;14717;46.924;15.474;2022-08-24T13:53:01;4.15;;;2.65;;
27201;SDS011;14717;46.924;15.474;2022-08-24T13:55:46;5.32;;;2.60;;
27201;SDS011;14717;46.924;15.474;2022-08-24T14:10:09;3.75;;;2.40;;
27201;SDS011;14717;46.924;15.474;2022-08-24T14:18:48;3.53;;;2.33;;
27201;SDS011;14717;46.924;15.474;2022-08-24T14:21:38;5.80;;;2.45;;
27201;SDS011;14717;46.924;15.474;2022-08-24T14:24:12;3.88;;;2.28;;
27201;SDS011;14717;46.924;15.474;2022-08-24T14:34:24;4.20;;;2.60;;
27201;SDS011;14717;46.924;15.474;2022-08-24T14:37:07;4.32;;;2.70;;
27201;SDS011;14717;46.924;15.474;2022-08-24T14:39:51;4.68;;;2.92;;
27201;SDS011;14717;46.924;15.474;2022-08-24T14:42:34;5.25;;;2.53;;
27201;SDS011;14717;46.924;15.474;2022-08-24T14:47:30;5.75;;;2.83;;
27201;SDS011;14717;46.924;15.474;2022-08-24T14:50:16;5.85;;;2.72;;
27201;SDS011;14717;46.924;15.474;2022-08-24T15:00:51;5.32;;;3.00;;
27201;SDS011;14717;46.924;15.474;2022-08-24T15:03:35;3.30;;;2.20;;
27201;SDS011;14717;46.924;15.474;2022-08-24T15:09:22;4.88;;;2.72;;
27201;SDS011;14717;46.924;15.474;2022-08-24T15:11:50;4.45;;;3.13;;
27201;SDS011;14717;46.924;15.474;2022-08-24T15:16:52;4.70;;;2.90;;
27201;SDS011;14717;46.924;15.474;2022-08-24T15:19:43;4.95;;;3.17;;
27201;SDS011;14717;46.924;15.474;2022-08-24T15:24:54;5.35;;;3.38;;
27201;SDS011;14717;46.924;15.474;2022-08-24T15:27:47;3.88;;;3.13;;
27201;SDS011;14717;46.924;15.474;2022-08-24T15:30:22;6.75;;;3.47;;
27201;SDS011;14717;46.924;15.474;2022-08-24T15:33:03;5.15;;;3.38;;
27201;SDS011;14717;46.924;15.474;2022-08-24T15:35:33;9.43;;;3.17;;
27201;SDS011;14717;46.924;15.474;2022-08-24T15:38:14;4.85;;;3.25;;
27201;SDS011;14717;46.924;15.474;2022-08-24T15:40:46;5.13;;;3.83;;
27201;SDS011;14717;46.924;15.474;2022-08-24T15:43:13;7.75;;;4.57;;
27201;SDS011;14717;46.924;15.474;2022-08-24T15:45:44;6.75;;;4.65;;
27201;SDS011;14717;46.924;15.474;2022-08-24T15:48:13;5.10;;;3.30;;
27201;SDS011;14717;46.924;15.474;2022-08-24T15:50:44;4.22;;;3.00;;
27201;SDS011;14717;46.924;15.474;2022-08-24T15:56:23;5.90;;;3.42;;
27201;SDS011;14717;46.924;15.474;2022-08-24T15:59:04;4.22;;;2.60;;
27201;SDS011;14717;46.924;15.474;2022-08-24T16:01:31;4.50;;;2.83;;
27201;SDS011;14717;46.924;15.474;2022-08-24T16:04:40;8.32;;;3.10;;
27201;SDS011;14717;46.924;15.474;2022-08-24T16:07:14;5.63;;;3.67;;
27201;SDS011;14717;46.924;15.474;2022-08-24T16:09:46;6.20;;;3.80;;
27201;SDS011;14717;46.924;15.474;2022-08-24T16:12:20;6.28;;;3.33;;
27201;SDS011;14717;46.924;15.474;2022-08-24T16:14:47;4.80;;;3.30;;
27201;SDS011;14717;46.924;15.474;2022-08-24T16:17:27;4.68;;;3.40;;
27201;SDS011;14717;46.924;15.474;2022-08-24T16:19:59;4.93;;;3.05;;
27201;SDS011;14717;46.924;15.474;2022-08-24T16:35:55;4.88;;;3.17;;
27201;SDS011;14717;46.924;15.474;2022-08-24T16:38:21;5.10;;;3.10;;
27201;SDS011;14717;46.924;15.474;2022-08-24T16:40:47;5.25;;;3.30;;
27201;SDS011;14717;46.924;15.474;2022-08-24T16:43:12;4.68;;;3.33;;
27201;SDS011;14717;46.924;15.474;2022-08-24T16:45:38;7.35;;;3.67;;
27201;SDS011;14717;46.924;15.474;2022-08-24T16:48:05;4.93;;;3.30;;
27201;SDS011;14717;46.924;15.474;2022-08-24T16:50:31;7.88;;;3.65;;
27201;SDS011;14717;46.924;15.474;2022-08-24T16:52:56;5.90;;;3.65;;
27201;SDS011;14717;46.924;15.474;2022-08-24T16:55:22;5.88;;;3.53;;
27201;SDS011;14717;46.924;15.474;2022-08-24T16:57:48;6.55;;;3.50;;
27201;SDS011;14717;46.924;15.474;2022-08-24T17:00:14;5.38;;;3.38;;
27201;SDS011;14717;46.924;15.474;2022-08-24T17:02:42;5.75;;;3.33;;
27201;SDS011;14717;46.924;15.474;2022-08-24T17:05:11;5.15;;;3.30;;
27201;SDS011;14717;46.924;15.474;2022-08-24T17:07:37;5.05;;;3.70;;
27201;SDS011;14717;46.924;15.474;2022-08-24T17:10:04;6.95;;;4.22;;
27201;SDS011;14717;46.924;15.474;2022-08-24T17:12:31;6.47;;;4.00;;
27201;SDS011;14717;46.924;15.474;2022-08-24T17:14:59;6.40;;;4.32;;
27201;SDS011;14717;46.924;15.474;2022-08-24T17:17:26;6.22;;;4.10;;
27201;SDS011;14717;46.924;15.474;2022-08-24T17:19:53;5.93;;;4.20;;
27201;SDS011;14717;46.924;15.474;2022-08-24T17:22:19;6.22;;;3.72;;
27201;SDS011;14717;46.924;15.474;2022-08-24T17:24:47;6.18;;;3.45;;
27201;SDS011;14717;46.924;15.474;2022-08-24T17:27:13;7.30;;;3.85;;
27201;SDS011;14717;46.924;15.474;2022-08-24T17:29:39;6.00;;;4.45;;
27201;SDS011;14717;46.924;15.474;2022-08-24T17:32:06;7.07;;;3.70;;
27201;SDS011;14717;46.924;15.474;2022-08-24T17:34:32;6.55;;;3.60;;
27201;SDS011;14717;46.924;15.474;2022-08-24T17:36:57;6.20;;;3.75;;
27201;SDS011;14717;46.924;15.474;2022-08-24T17:39:23;6.30;;;3.40;;
27201;SDS011;14717;46.924;15.474;2022-08-24T17:41:53;5.60;;;3.50;;
27201;SDS011;14717;46.924;15.474;2022-08-24T17:44:22;6.60;;;4.13;;
27201;SDS011;14717;46.924;15.474;2022-08-24T17:46:50;8.90;;;3.63;;
27201;SDS011;14717;46.924;15.474;2022-08-24T17:49:17;6.00;;;3.70;;
27201;SDS011;14717;46.924;15.474;2022-08-24T17:51:44;5.47;;;3.63;;
27201;SDS011;14717;46.924;15.474;2022-08-24T17:54:09;6.13;;;3.60;;
27201;SDS011;14717;46.924;15.474;2022-08-24T17:56:35;7.93;;;3.92;;
27201;SDS011;14717;46.924;15.474;2022-08-24T17:59:08;7.05;;;3.65;;
27201;SDS011;14717;46.924;15.474;2022-08-24T18:01:47;7.55;;;3.75;;
27201;SDS011;14717;46.924;15.474;2022-08-24T18:04:16;5.18;;;3.88;;
27201;SDS011;14717;46.924;15.474;2022-08-24T18:06:44;6.00;;;3.45;;
27201;SDS011;14717;46.924;15.474;2022-08-24T18:09:22;8.27;;;4.00;;
27201;SDS011;14717;46.924;15.474;2022-08-24T18:12:12;5.32;;;3.40;;
27201;SDS011;14717;46.924;15.474;2022-08-24T18:14:39;6.22;;;3.70;;
27201;SDS011;14717;46.924;15.474;2022-08-24T18:17:05;6.00;;;3.40;;
27201;SDS011;14717;46.924;15.474;2022-08-24T18:19:34;5.50;;;3.88;;
27201;SDS011;14717;46.924;15.474;2022-08-24T18:22:01;6.82;;;3.40;;
27201;SDS011;14717;46.924;15.474;2022-08-24T18:24:28;5.55;;;3.22;;
27201;SDS011;14717;46.924;15.474;2022-08-24T18:27:20;5.63;;;3.70;;
27201;SDS011;14717;46.924;15.474;2022-08-24T18:29:48;8.50;;;4.72;;
27201;SDS011;14717;46.924;15.474;2022-08-24T18:32:14;6.00;;;3.70;;
27201;SDS011;14717;46.924;15.474;2022-08-24T18:34:39;6.35;;;3.78;;
27201;SDS011;14717;46.924;15.474;2022-08-24T18:37:06;5.57;;;3.53;;
27201;SDS011;14717;46.924;15.474;2022-08-24T18:39:31;5.35;;;3.28;;
27201;SDS011;14717;46.924;15.474;2022-08-24T18:41:58;5.68;;;3.13;;
27201;SDS011;14717;46.924;15.474;2022-08-24T18:44:25;7.05;;;3.65;;
27201;SDS011;14717;46.924;15.474;2022-08-24T18:46:51;5.88;;;3.60;;
27201;SDS011;14717;46.924;15.474;2022-08-24T18:49:17;6.25;;;3.97;;
27201;SDS011;14717;46.924;15.474;2022-08-24T18:51:44;7.07;;;3.92;;
27201;SDS011;14717;46.924;15.474;2022-08-24T18:54:22;5.90;;;3.88;;
27201;SDS011;14717;46.924;15.474;2022-08-24T18:56:49;6.55;;;3.70;;
27201;SDS011;14717;46.924;15.474;2022-08-24T18:59:16;5.82;;;3.95;;
27201;SDS011;14717;46.924;15.474;2022-08-24T19:01:43;7.10;;;3.60;;
27201;SDS011;14717;46.924;15.474;2022-08-24T19:04:28;5.22;;;3.40;;
27201;SDS011;14717;46.924;15.474;2022-08-24T19:06:55;5.95;;;3.55;;
27201;SDS011;14717;46.924;15.474;2022-08-24T19:09:21;6.95;;;3.45;;
27201;SDS011;14717;46.924;15.474;2022-08-24T19:11:46;5.25;;;3.60;;
27201;SDS011;14717;46.924;15.474;2022-08-24T19:14:12;5.70;;;4.00;;
27201;SDS011;14717;46.924;15.474;2022-08-24T19:16:38;6.05;;;3.53;;
27201;SDS011;14717;46.924;15.474;2022-08-24T19:19:04;6.55;;;4.15;;
27201;SDS011;14717;46.924;15.474;2022-08-24T19:21:30;6.32;;;3.85;;
27201;SDS011;14717;46.924;15.474;2022-08-24T19:23:59;6.80;;;3.97;;
27201;SDS011;14717;46.924;15.474;2022-08-24T19:26:26;6.45;;;3.80;;
27201;SDS011;14717;46.924;15.474;2022-08-24T19:28:53;6.50;;;3.83;;
27201;SDS011;14717;46.924;15.474;2022-08-24T19:31:21;5.93;;;3.40;;
27201;SDS011;14717;46.924;15.474;2022-08-24T19:33:48;5.25;;;3.70;;